createdAt,value
2019-03-18T00:09:56.321Z,3.00
2019-03-18T00:20:01.209Z,3.87
2019-03-18T00:30:16.789Z,2.77
2019-03-18T00:40:21.836Z,4.37
2019-03-18T00:50:26.843Z,5.50
2019-03-18T01:00:31.923Z,4.13
2019-03-18T01:10:36.817Z,4.20
2019-03-18T01:20:41.722Z,11.70
2019-03-18T01:30:46.611Z,7.30
2019-03-18T01:40:51.485Z,4.73
2019-03-18T01:50:56.600Z,4.30
2019-03-18T02:01:01.686Z,8.10
2019-03-18T02:11:07.714Z,5.30
2019-03-18T02:21:13.739Z,3.50
2019-03-18T02:31:18.721Z,3.90
2019-03-18T02:41:23.617Z,7.37
2019-03-18T02:51:28.602Z,6.33
2019-03-18T03:01:33.718Z,5.90
2019-03-18T03:11:38.626Z,5.37
2019-03-18T03:21:43.590Z,6.37
2019-03-18T03:31:48.485Z,19.07
2019-03-18T03:41:53.482Z,11.97
2019-03-18T03:51:58.473Z,12.47
2019-03-18T04:02:03.491Z,6.73
2019-03-18T04:12:08.359Z,8.40
2019-03-18T04:22:13.334Z,7.47
2019-03-18T04:32:18.225Z,24.93
2019-03-18T04:42:23.127Z,29.53
2019-03-18T04:52:28.004Z,12.00
2019-03-18T05:02:32.998Z,12.40
2019-03-18T05:12:37.888Z,12.67
2019-03-18T05:22:42.867Z,10.67
2019-03-18T05:32:47.788Z,10.00
2019-03-18T05:42:52.673Z,30.40
2019-03-18T05:52:57.567Z,12.37
2019-03-18T06:03:02.664Z,10.83
2019-03-18T06:13:07.539Z,16.37
2019-03-18T06:23:12.434Z,13.83
2019-03-18T06:33:17.338Z,10.97
2019-03-18T06:43:22.426Z,11.97
2019-03-18T06:53:27.341Z,12.30
2019-03-18T07:03:32.244Z,19.93
2019-03-18T07:13:37.210Z,11.87
2019-03-18T07:23:42.203Z,8.83
2019-03-18T07:33:47.092Z,20.70
2019-03-18T07:43:51.990Z,10.10
2019-03-18T07:53:56.879Z,9.87
2019-03-18T08:04:02.087Z,12.87
2019-03-18T08:14:07.029Z,7.40
2019-03-18T08:24:12.076Z,10.83
2019-03-18T08:34:17.158Z,7.90
2019-03-18T08:44:22.052Z,5.73
2019-03-18T08:54:30.034Z,6.17
2019-03-18T09:04:35.115Z,21.17
2019-03-18T09:14:40.103Z,14.30
2019-03-18T09:24:45.094Z,8.00
2019-03-18T09:34:50.086Z,12.77
2019-03-18T09:44:55.087Z,9.47
2019-03-18T09:55:00.363Z,12.00
2019-03-18T10:05:06.719Z,11.27
2019-03-18T10:25:42.176Z,10.90
2019-03-18T10:35:47.073Z,7.33
2019-03-18T10:45:52.164Z,5.60
2019-03-18T10:56:07.172Z,6.77
2019-03-18T11:06:03.838Z,7.50
2019-03-18T11:16:08.784Z,5.87
2019-03-18T11:26:14.814Z,6.83
2019-03-18T11:36:19.694Z,7.20
2019-03-18T11:46:24.582Z,7.07
2019-03-18T11:56:29.480Z,3.80
2019-03-18T12:06:34.364Z,4.17
2019-03-18T12:16:39.358Z,3.43
2019-03-18T12:26:44.260Z,3.53
2019-03-18T12:36:49.253Z,2.10
2019-03-18T12:46:54.341Z,3.77
2019-03-18T12:56:59.351Z,2.30
2019-03-18T13:07:05.349Z,5.10
2019-03-18T13:17:10.346Z,7.07
2019-03-18T13:27:15.338Z,7.80
2019-03-18T13:37:20.337Z,3.53
2019-03-18T13:47:46.029Z,8.43
2019-03-18T13:57:50.910Z,4.90
2019-03-18T14:08:00.879Z,3.17
2019-03-18T14:18:02.736Z,3.90
2019-03-18T14:28:10.097Z,4.40
2019-03-18T14:38:15.038Z,6.47
2019-03-18T14:48:19.985Z,4.40
2019-03-18T14:58:25.098Z,5.50
2019-03-18T15:08:30.331Z,1.97
2019-03-18T15:18:35.494Z,2.83
2019-03-18T15:28:40.526Z,4.77
2019-03-18T15:38:46.628Z,6.40
2019-03-18T15:48:51.975Z,5.07
2019-03-18T15:58:57.142Z,6.27
2019-03-18T16:09:02.760Z,8.55
2019-03-18T16:19:08.066Z,11.27
2019-03-18T16:29:13.459Z,12.87
2019-03-18T16:39:18.869Z,22.30
2019-03-18T16:49:24.149Z,18.63
2019-03-18T16:59:29.662Z,19.17
2019-03-18T17:09:35.043Z,20.10
2019-03-18T17:19:40.379Z,20.37
2019-03-18T17:29:45.830Z,15.93
2019-03-18T17:39:51.323Z,16.63
2019-03-18T17:49:56.560Z,31.70
2019-03-18T18:00:01.978Z,47.83
2019-03-18T18:10:10.638Z,37.10
2019-03-18T18:20:16.451Z,26.00
2019-03-18T18:30:21.959Z,42.00
2019-03-18T18:40:29.523Z,23.53
2019-03-18T18:50:34.939Z,21.67
2019-03-18T19:00:40.319Z,18.63
2019-03-18T19:10:45.873Z,24.13
2019-03-18T19:20:51.565Z,32.97
2019-03-18T19:30:56.980Z,32.33
2019-03-18T19:41:02.444Z,24.27
2019-03-18T19:51:07.981Z,41.03
2019-03-18T20:01:13.406Z,33.23
2019-03-18T20:11:18.700Z,36.53
2019-03-18T20:21:23.994Z,17.83
2019-03-18T20:31:29.258Z,16.10
2019-03-18T20:41:34.434Z,85.33
2019-03-18T20:51:39.923Z,73.17
2019-03-18T21:01:45.172Z,51.17
2019-03-18T21:11:50.568Z,42.38
2019-03-18T21:21:55.966Z,24.40
2019-03-18T21:32:01.433Z,32.93
2019-03-18T21:42:06.713Z,37.77
2019-03-18T21:52:11.863Z,16.73
2019-03-18T22:02:16.973Z,20.27
2019-03-18T22:12:22.223Z,20.10
2019-03-18T22:22:27.213Z,21.50
2019-03-18T22:32:32.097Z,18.53
2019-03-18T22:42:38.228Z,21.90
2019-03-18T22:52:43.219Z,28.83
2019-03-18T23:02:48.099Z,31.25
2019-03-18T23:12:53.204Z,17.50
2019-03-18T23:22:58.297Z,17.60
2019-03-18T23:33:03.299Z,13.27
2019-03-18T23:43:08.178Z,15.70
2019-03-18T23:53:15.891Z,13.13
